Archival Weather

Fukuoka

Fukuoka, Japan (RJFF)

Report from: Tuesday, August 16, 2022 2:30 PM JST
Current time: Sunday, November 27, 2022 5:06 PM JST

Current weather
Weather history
Weather forecast

Present weatherVCSH, thunderstorm with rain
Temperature27.0°C (80.6°F)
Heat index30.6°C (87.0°F)
Dew point25.0°C (77.0°F)
Winds 4 kts (2.1 m/s, 4.6 mph) Vrb
Winds variableWinds variable from Southeast (130°) to Southwest (230°)
Visibility6.2 mi. (10 km)
Clouds Few clouds 800 ft. (244 m)
Few clouds with cumulonimbus 2,000 ft. (610 m)
Scattered clouds 5,000 ft. (1,524 m)
Ceiling: Broken clouds 6,000 ft. (1,829 m)
Altimeter29.71 in.Hg (1006 mB)
Relative humidity89 %
Density altitude2,051 ft. (625 m)
Flight conditions Visual Meteorological Conditions
Raw dataRJFF 160530Z 17004KT 130V230 9999 VCSH FEW008 FEW020CB SCT050 BKN060 27/25 Q1006 BECMG 19014KT TEMPO 3000 TSRA BR
An error has occurred. This application may no longer respond until reloaded. Reload 🗙